Bon Secour, Alabama
Current Conditions -  °F | °C
As of 10:55 PM on Sunday 21 Dec 2014 (Local Time) from KJKA Reporting Station
Scattered Clouds Scattered Clouds  
Wind Chill: 55°   Ceiling: Unl
Heat Index: 55°   Visibility: 10mi
Dew Point: 54°   Wind: 3mph
Humidity: 96%   Direction: 70°ENE
Pressure: 29.99"   Gusts: NA
Location:  30.32°N, 87.73°W
Report Text: KJKA 220455Z AUTO 07003KT 10SM SCT014 SCT110 13/12 A2999 RMK AO2 T01270120 401410101
Loading
Personal Weather Stations






























Interactive Weather Map New forecast layout! Learn more

10-Day Weather Forecast

Advertisements
Track Severe Weather on mobile